Terminal Aerodrome Forecast
Issued by NWS New Orleans/Baton Rouge, LA

Home | Current Version | Previous Version | Text Only | Print | Product List | Glossary On
Versions: 1 2 3 4 5 6 7 8 9 10 11 12 13 14 15 16 17 18 19 20 21
000
FTUS44 KLIX 261720
TAFNEW
TAF
KNEW 261720Z 2618/2718 17005KT P6SM SCT050
     FM270500 16008KT P6SM BKN030
     FM270700 17008KT P6SM BKN015
     FM270900 17007KT P6SM BKN008
     FM271200 17006KT P6SM BKN003
     FM271700 17010G20KT P6SM BKN025=

USA.gov is the U.S. government's official web portal to all federal, state and local government web resources and services.